createdAt,value
2023-03-06T00:00:56.350Z,31.85
2023-03-06T00:01:57.415Z,31.84
2023-03-06T00:02:56.327Z,31.84
2023-03-06T00:03:58.021Z,31.84
2023-03-06T00:04:57.302Z,31.83
2023-03-06T00:05:56.333Z,31.82
2023-03-06T00:06:57.299Z,31.84
2023-03-06T00:07:57.322Z,31.84
2023-03-06T00:08:57.290Z,31.81
2023-03-06T00:09:57.272Z,31.83
2023-03-06T00:10:57.290Z,31.83
2023-03-06T00:11:57.250Z,31.82
2023-03-06T00:12:57.247Z,31.79
2023-03-06T00:13:57.241Z,31.82
2023-03-06T00:14:57.225Z,31.80
2023-03-06T00:15:57.259Z,31.76
2023-03-06T00:16:57.215Z,31.77
2023-03-06T00:17:57.209Z,31.73
2023-03-06T00:18:56.197Z,31.70
2023-03-06T00:19:56.188Z,31.69
2023-03-06T00:20:57.179Z,31.66
2023-03-06T00:21:57.176Z,31.62
2023-03-06T00:22:56.166Z,31.56
2023-03-06T00:23:57.201Z,31.56
2023-03-06T00:24:57.163Z,31.54
2023-03-06T00:25:57.164Z,31.52
2023-03-06T00:26:56.144Z,31.49
2023-03-06T00:27:56.150Z,31.44
2023-03-06T00:28:56.138Z,31.44
2023-03-06T00:29:56.109Z,31.41
2023-03-06T00:30:57.111Z,31.40
2023-03-06T00:31:57.124Z,31.38
2023-03-06T00:32:57.098Z,31.36
2023-03-06T00:33:56.116Z,31.37
2023-03-06T00:34:56.195Z,31.35
2023-03-06T00:35:57.325Z,31.36
2023-03-06T00:36:57.268Z,31.33
2023-03-06T00:37:57.328Z,31.33
2023-03-06T00:38:57.385Z,31.33
2023-03-06T00:39:57.477Z,31.29
2023-03-06T00:40:57.497Z,31.29
2023-03-06T00:41:57.535Z,31.28
2023-03-06T00:42:57.595Z,31.26
2023-03-06T00:43:56.646Z,31.27
2023-03-06T00:44:57.685Z,31.24
2023-03-06T00:45:57.853Z,31.24
2023-03-06T00:46:56.781Z,31.23
2023-03-06T00:47:57.830Z,31.23
2023-03-06T00:48:57.868Z,31.21
2023-03-06T00:49:56.902Z,31.21
2023-03-06T00:50:57.942Z,31.20
2023-03-06T00:51:57.980Z,31.18
2023-03-06T00:52:57.028Z,31.18
2023-03-06T00:53:58.062Z,31.14
2023-03-06T00:54:57.076Z,31.15
2023-03-06T00:55:57.137Z,31.14
2023-03-06T00:56:57.135Z,31.13
2023-03-06T00:57:57.175Z,31.14
2023-03-06T00:58:58.204Z,31.13
2023-03-06T00:59:58.234Z,31.11
2023-03-06T01:00:58.289Z,31.11
2023-03-06T01:01:57.286Z,31.09
2023-03-06T01:02:58.313Z,31.08
2023-03-06T01:03:58.344Z,31.08
2023-03-06T01:04:58.371Z,31.08
2023-03-06T01:05:58.395Z,31.06
2023-03-06T01:06:58.428Z,31.06
2023-03-06T01:07:57.453Z,31.05
2023-03-06T01:08:57.471Z,31.04
2023-03-06T01:09:58.500Z,31.04
2023-03-06T01:10:58.512Z,31.02
2023-03-06T01:11:58.569Z,31.01
2023-03-06T01:12:57.558Z,31.01
2023-03-06T01:13:58.603Z,31.03
2023-03-06T01:14:57.611Z,30.98
2023-03-06T01:15:58.621Z,30.99
2023-03-06T01:16:57.652Z,30.98
2023-03-06T01:17:58.662Z,30.97
2023-03-06T01:18:57.692Z,30.99
2023-03-06T01:19:58.694Z,30.96
2023-03-06T01:20:58.724Z,30.96
2023-03-06T01:21:58.745Z,30.96
2023-03-06T01:22:58.745Z,30.94
2023-03-06T01:23:58.765Z,30.95
2023-03-06T01:24:58.770Z,30.96
2023-03-06T01:25:58.774Z,30.94
2023-03-06T01:26:57.801Z,30.93
2023-03-06T01:27:58.856Z,30.93
2023-03-06T01:28:58.811Z,30.91
2023-03-06T01:29:58.837Z,30.90
2023-03-06T01:30:58.846Z,30.93
2023-03-06T01:31:58.924Z,30.89
2023-03-06T01:32:58.862Z,30.91
2023-03-06T01:33:58.907Z,30.89
2023-03-06T01:34:58.907Z,30.90
2023-03-06T01:35:58.881Z,30.89
2023-03-06T01:36:58.904Z,30.91
2023-03-06T01:37:57.910Z,30.86
2023-03-06T01:38:58.927Z,30.88
2023-03-06T01:39:58.952Z,30.86
2023-03-06T01:40:58.939Z,30.87
2023-03-06T01:41:58.944Z,30.85
2023-03-06T01:42:58.942Z,30.86
2023-03-06T01:43:59.002Z,30.83
2023-03-06T01:44:59.007Z,30.84
2023-03-06T01:45:59.017Z,30.85
2023-03-06T01:46:58.951Z,30.85
2023-03-06T01:47:58.953Z,30.84
2023-03-06T01:48:58.974Z,30.83
2023-03-06T01:49:58.972Z,30.81
2023-03-06T01:50:58.962Z,30.80
2023-03-06T01:51:58.975Z,30.81
2023-03-06T01:52:58.997Z,30.83
2023-03-06T01:53:58.990Z,30.80
2023-03-06T01:54:57.977Z,30.79
2023-03-06T01:55:58.971Z,30.82
2023-03-06T01:56:58.964Z,30.78
2023-03-06T01:57:58.976Z,30.79
2023-03-06T01:58:58.956Z,30.77
2023-03-06T01:59:58.966Z,30.78
2023-03-06T02:00:58.977Z,30.78
2023-03-06T02:01:57.972Z,30.78
2023-03-06T02:02:59.011Z,30.77
2023-03-06T02:03:59.016Z,30.77
2023-03-06T02:04:58.964Z,30.74
2023-03-06T02:05:57.961Z,30.76
2023-03-06T02:06:58.970Z,30.72
2023-03-06T02:07:58.960Z,30.72
2023-03-06T02:08:58.968Z,30.75
2023-03-06T02:09:58.988Z,30.74
2023-03-06T02:10:58.982Z,30.73
2023-03-06T02:11:59.014Z,30.73
2023-03-06T02:12:58.028Z,30.73
2023-03-06T02:13:58.045Z,30.72
2023-03-06T02:14:59.179Z,30.72
2023-03-06T02:15:59.119Z,30.70
2023-03-06T02:16:58.155Z,30.72
2023-03-06T02:17:58.139Z,30.70
2023-03-06T02:18:59.153Z,30.70
2023-03-06T02:19:59.209Z,30.70
2023-03-06T02:20:58.206Z,30.66
2023-03-06T02:21:59.208Z,30.69
2023-03-06T02:22:59.242Z,30.70
2023-03-06T02:23:59.266Z,30.69
2023-03-06T02:24:59.300Z,30.68
2023-03-06T02:25:59.338Z,30.66
2023-03-06T02:26:58.370Z,30.63
2023-03-06T02:27:59.404Z,30.65
2023-03-06T02:28:59.419Z,30.68
2023-03-06T02:29:59.448Z,30.67
2023-03-06T02:30:58.527Z,30.66
2023-03-06T02:31:59.675Z,30.65
2023-03-06T02:32:59.552Z,30.62
2023-03-06T02:33:58.594Z,30.63
2023-03-06T02:34:59.629Z,30.64
2023-03-06T02:35:59.692Z,30.63
2023-03-06T02:36:59.694Z,30.64
2023-03-06T02:37:59.700Z,30.61
2023-03-06T02:38:59.767Z,30.64
2023-03-06T02:39:59.764Z,30.64
2023-03-06T02:40:59.818Z,30.59
2023-03-06T02:41:59.815Z,30.62
2023-03-06T02:42:59.837Z,30.64
2023-03-06T02:43:59.866Z,30.62
2023-03-06T02:44:59.881Z,30.64
2023-03-06T02:45:59.912Z,30.60
2023-03-06T02:46:59.912Z,30.62
2023-03-06T02:47:59.966Z,30.62
2023-03-06T02:48:59.968Z,30.63
2023-03-06T02:49:59.976Z,30.64
2023-03-06T02:50:58.977Z,30.64
2023-03-06T02:51:59.986Z,30.61
2023-03-06T02:52:59.997Z,30.61
2023-03-06T02:53:58.968Z,30.63
2023-03-06T02:54:58.977Z,30.60
2023-03-06T02:55:59.981Z,30.61
2023-03-06T02:56:59.978Z,30.63
2023-03-06T02:57:59.976Z,30.63
2023-03-06T02:58:59.986Z,30.61
2023-03-06T02:59:58.997Z,30.63
2023-03-06T03:00:59.984Z,30.62
2023-03-06T03:01:59.007Z,30.59
2023-03-06T03:02:59.032Z,30.61
2023-03-06T03:04:00.099Z,30.62
2023-03-06T03:04:59.062Z,30.59
2023-03-06T03:06:00.106Z,30.61
2023-03-06T03:06:59.103Z,30.61
2023-03-06T03:07:59.127Z,30.61
2023-03-06T03:08:59.119Z,30.62
2023-03-06T03:09:59.136Z,30.61
2023-03-06T03:11:00.145Z,30.62
2023-03-06T03:11:59.160Z,30.61
2023-03-06T03:12:59.209Z,30.63
2023-03-06T03:14:00.229Z,30.63
2023-03-06T03:14:59.217Z,30.61
2023-03-06T03:16:00.330Z,30.61
2023-03-06T03:17:00.253Z,30.62
2023-03-06T03:18:00.288Z,30.63
2023-03-06T03:19:00.329Z,30.63
2023-03-06T03:20:00.418Z,30.60
2023-03-06T03:20:59.389Z,30.63
2023-03-06T03:22:00.409Z,30.60
2023-03-06T03:22:59.427Z,30.61
2023-03-06T03:24:00.452Z,30.62
2023-03-06T03:25:00.507Z,30.62
2023-03-06T03:26:00.559Z,30.61
2023-03-06T03:27:00.560Z,30.62
2023-03-06T03:28:00.597Z,30.60
2023-03-06T03:28:59.627Z,30.61
2023-03-06T03:30:00.685Z,30.59
2023-03-06T03:31:00.760Z,30.60
2023-03-06T03:32:00.773Z,30.59
2023-03-06T03:33:00.747Z,30.61
2023-03-06T03:34:00.786Z,30.60
2023-03-06T03:35:00.876Z,30.59
2023-03-06T03:36:00.886Z,30.60
2023-03-06T03:37:00.925Z,30.61
2023-03-06T03:38:01.124Z,30.58
2023-03-06T03:39:00.020Z,30.59
2023-03-06T03:40:00.081Z,30.60
2023-03-06T03:41:01.131Z,30.56
2023-03-06T03:42:01.190Z,30.58
2023-03-06T03:43:01.253Z,30.60
2023-03-06T03:44:01.340Z,30.57
2023-03-06T03:45:00.319Z,30.57
2023-03-06T03:46:01.345Z,30.57
2023-03-06T03:47:01.360Z,30.56
2023-03-06T03:48:01.385Z,30.55
2023-03-06T03:49:01.458Z,30.56
2023-03-06T03:50:00.486Z,30.55
2023-03-06T03:51:01.498Z,30.54
2023-03-06T03:52:01.566Z,30.54
2023-03-06T03:53:01.560Z,30.52
2023-03-06T03:54:01.579Z,30.55
2023-03-06T03:55:00.590Z,30.54
2023-03-06T03:56:00.625Z,30.53
2023-03-06T03:57:00.675Z,30.54
2023-03-06T03:58:01.721Z,30.54
2023-03-06T03:59:01.775Z,30.53
2023-03-06T04:00:01.846Z,30.54
2023-03-06T04:01:01.892Z,30.53
2023-03-06T04:02:02.033Z,30.52
2023-03-06T04:03:00.971Z,30.54
2023-03-06T04:04:02.028Z,30.51
2023-03-06T04:05:01.155Z,30.54
2023-03-06T04:06:01.136Z,30.53
2023-03-06T04:07:01.165Z,30.52
2023-03-06T04:08:02.196Z,30.52
2023-03-06T04:09:02.217Z,30.53
2023-03-06T04:10:02.221Z,30.51
2023-03-06T04:11:02.539Z,30.52
2023-03-06T04:12:01.306Z,30.52
2023-03-06T04:13:02.366Z,30.51
2023-03-06T04:14:02.407Z,30.52
2023-03-06T04:15:01.434Z,30.50
2023-03-06T04:16:01.535Z,30.48
2023-03-06T04:17:01.547Z,30.50
2023-03-06T04:18:02.612Z,30.50
2023-03-06T04:19:02.665Z,30.51
2023-03-06T04:20:02.729Z,30.50
2023-03-06T04:21:02.789Z,30.49
2023-03-06T04:22:02.846Z,30.50
2023-03-06T04:23:02.916Z,30.49
2023-03-06T04:24:03.000Z,30.49
2023-03-06T04:25:03.017Z,30.49
2023-03-06T04:26:02.071Z,30.50
2023-03-06T04:27:02.098Z,30.49
2023-03-06T04:28:03.167Z,30.50
2023-03-06T04:29:03.214Z,30.48
2023-03-06T04:30:03.274Z,30.48
2023-03-06T04:31:03.407Z,30.50
2023-03-06T04:32:03.457Z,30.50
2023-03-06T04:33:02.424Z,30.50
2023-03-06T04:34:02.503Z,30.48
2023-03-06T04:35:03.574Z,30.51
2023-03-06T04:36:02.604Z,30.48
2023-03-06T04:37:03.662Z,30.50
2023-03-06T04:38:03.670Z,30.50
2023-03-06T04:39:03.786Z,30.49
2023-03-06T04:40:03.814Z,30.47
2023-03-06T04:41:03.856Z,30.49
2023-03-06T04:42:03.971Z,30.48
2023-03-06T04:43:03.996Z,30.49
2023-03-06T04:44:03.069Z,30.48
2023-03-06T04:45:04.102Z,30.48
2023-03-06T04:46:04.246Z,30.48
2023-03-06T04:47:04.199Z,30.48
2023-03-06T04:48:04.270Z,30.49
2023-03-06T04:49:04.322Z,30.49
2023-03-06T04:50:04.374Z,30.49
2023-03-06T04:51:04.460Z,30.49
2023-03-06T04:52:04.489Z,30.47
2023-03-06T04:53:04.556Z,30.46
2023-03-06T04:54:04.637Z,30.48
2023-03-06T04:55:03.646Z,30.46
2023-03-06T04:56:04.730Z,30.49
2023-03-06T04:57:03.764Z,30.48
2023-03-06T04:58:04.808Z,30.47
2023-03-06T04:59:04.901Z,30.46
2023-03-06T05:00:03.904Z,30.46
2023-03-06T05:01:05.020Z,30.47
2023-03-06T05:02:05.092Z,30.45
2023-03-06T05:03:04.093Z,30.47
2023-03-06T05:04:05.148Z,30.47
2023-03-06T05:05:05.211Z,30.47
2023-03-06T05:06:05.319Z,30.46
2023-03-06T05:07:05.352Z,30.44
2023-03-06T05:08:04.391Z,30.46
2023-03-06T05:09:05.462Z,30.46
2023-03-06T05:10:05.525Z,30.48
2023-03-06T05:11:05.599Z,30.46
2023-03-06T05:12:05.669Z,30.45
2023-03-06T05:13:04.698Z,30.45
2023-03-06T05:14:05.758Z,30.45
2023-03-06T05:15:05.818Z,30.45
2023-03-06T05:16:04.944Z,30.46
2023-03-06T05:17:05.956Z,30.45
2023-03-06T05:18:05.998Z,30.43
2023-03-06T05:19:06.201Z,30.45
2023-03-06T05:20:06.169Z,30.44
2023-03-06T05:21:06.197Z,30.45
2023-03-06T05:22:06.257Z,30.44
2023-03-06T05:23:06.315Z,30.42
2023-03-06T05:24:06.372Z,30.44
2023-03-06T05:25:06.449Z,30.44
2023-03-06T05:26:06.490Z,30.45
2023-03-06T05:27:06.549Z,30.43
2023-03-06T05:28:06.635Z,30.43
2023-03-06T05:29:05.657Z,30.42
2023-03-06T05:30:06.709Z,30.43
2023-03-06T05:31:06.780Z,30.40
2023-03-06T05:32:07.061Z,30.42
2023-03-06T05:33:06.906Z,30.42
2023-03-06T05:34:06.966Z,30.40
2023-03-06T05:35:07.027Z,30.44
2023-03-06T05:36:07.092Z,30.42
2023-03-06T05:37:07.163Z,30.43
2023-03-06T05:38:06.218Z,30.41
2023-03-06T05:39:07.271Z,30.40
2023-03-06T05:40:07.342Z,30.39
2023-03-06T05:41:07.410Z,30.40
2023-03-06T05:42:07.457Z,30.40
2023-03-06T05:43:07.527Z,30.40
2023-03-06T05:44:07.614Z,30.40
2023-03-06T05:45:06.636Z,30.43
2023-03-06T05:46:06.794Z,30.40
2023-03-06T05:47:07.775Z,30.38
2023-03-06T05:48:07.835Z,30.41
2023-03-06T05:49:07.894Z,30.40
2023-03-06T05:50:07.996Z,30.36
2023-03-06T05:51:08.045Z,30.38
2023-03-06T05:52:08.123Z,30.40
2023-03-06T05:53:07.141Z,30.38
2023-03-06T05:54:08.216Z,30.37
2023-03-06T05:55:08.276Z,30.39
2023-03-06T05:56:08.324Z,30.35
2023-03-06T05:57:08.433Z,30.37
2023-03-06T05:58:08.449Z,30.39
2023-03-06T05:59:08.506Z,30.38
2023-03-06T06:00:08.594Z,30.39
2023-03-06T06:01:08.633Z,30.38
2023-03-06T06:02:08.730Z,30.39
2023-03-06T06:03:08.796Z,30.37
2023-03-06T06:04:08.847Z,30.35
2023-03-06T06:05:10.247Z,30.36
2023-03-06T06:06:08.856Z,30.37
2023-03-06T06:07:08.860Z,30.37
2023-03-06T06:08:08.832Z,30.38
2023-03-06T06:09:08.911Z,30.37
2023-03-06T06:10:08.906Z,30.36
2023-03-06T06:11:08.806Z,30.35
2023-03-06T06:12:08.839Z,30.37
2023-03-06T06:13:08.811Z,30.37
2023-03-06T06:14:08.780Z,30.37
2023-03-06T06:15:08.866Z,30.38
2023-03-06T06:16:08.892Z,30.36
2023-03-06T06:17:08.805Z,30.36
2023-03-06T06:18:08.822Z,30.35
2023-03-06T06:19:08.799Z,30.35
2023-03-06T06:20:08.801Z,30.36
2023-03-06T06:21:08.743Z,30.37
2023-03-06T06:22:08.820Z,30.36
2023-03-06T06:23:08.736Z,30.36
2023-03-06T06:24:08.737Z,30.35
2023-03-06T06:25:08.711Z,30.37
2023-03-06T06:26:08.714Z,30.38
2023-03-06T06:27:08.790Z,30.49
2023-03-06T06:28:08.752Z,30.45
2023-03-06T06:29:08.680Z,30.48
2023-03-06T06:30:08.703Z,30.47
2023-03-06T06:31:08.785Z,30.48
2023-03-06T06:32:07.861Z,30.55
2023-03-06T06:33:08.858Z,30.54
2023-03-06T06:34:08.923Z,30.58
2023-03-06T06:35:09.022Z,30.60
2023-03-06T06:36:09.005Z,30.66
2023-03-06T06:37:08.107Z,30.68
2023-03-06T06:38:08.070Z,30.71
2023-03-06T06:39:09.148Z,30.75
2023-03-06T06:40:09.144Z,30.74
2023-03-06T06:41:36.116Z,30.74
2023-03-06T06:42:28.564Z,30.76
2023-03-06T06:43:09.188Z,30.85
2023-03-06T06:44:09.158Z,30.87
2023-03-06T06:45:08.159Z,30.91
2023-03-06T06:46:36.522Z,30.90
2023-03-06T06:47:25.785Z,30.95
2023-03-06T06:48:09.154Z,30.97
2023-03-06T06:49:09.116Z,30.95
2023-03-06T06:50:08.093Z,30.99
2023-03-06T06:51:09.100Z,31.05
2023-03-06T06:52:08.079Z,31.04
2023-03-06T06:53:09.119Z,31.08
2023-03-06T06:54:08.144Z,31.16
2023-03-06T06:55:09.054Z,31.20
2023-03-06T06:56:09.058Z,31.29
2023-03-06T06:57:08.230Z,31.54
2023-03-06T06:58:09.348Z,31.71
2023-03-06T06:59:16.609Z,31.62
2023-03-06T07:00:09.055Z,31.57
2023-03-06T07:01:09.072Z,31.65
2023-03-06T07:02:09.189Z,31.65
2023-03-06T07:03:09.050Z,31.66
2023-03-06T07:04:09.038Z,31.71
2023-03-06T07:05:09.099Z,31.81
2023-03-06T07:06:09.080Z,31.91
2023-03-06T07:07:08.039Z,32.05
2023-03-06T07:08:07.995Z,32.05
2023-03-06T07:09:08.958Z,32.15
2023-03-06T07:10:09.034Z,32.16
2023-03-06T07:11:07.944Z,32.26
2023-03-06T07:12:09.035Z,32.42
2023-03-06T07:13:08.955Z,32.53
2023-03-06T07:14:08.925Z,32.63
2023-03-06T07:15:08.941Z,32.65
2023-03-06T07:16:08.040Z,32.74
2023-03-06T07:17:08.995Z,32.84
2023-03-06T07:18:08.987Z,32.84
2023-03-06T07:19:08.937Z,33.04
2023-03-06T07:20:08.962Z,32.96
2023-03-06T07:21:08.900Z,33.14
2023-03-06T07:22:08.883Z,33.14
2023-03-06T07:23:09.141Z,33.23
2023-03-06T07:24:08.853Z,33.34
2023-03-06T07:25:08.863Z,33.61
2023-03-06T07:26:08.848Z,33.50
2023-03-06T07:27:09.885Z,33.64
2023-03-06T07:28:09.305Z,33.96
2023-03-06T07:29:08.846Z,33.86
2023-03-06T07:30:08.884Z,33.94
2023-03-06T07:31:08.975Z,34.02
2023-03-06T07:32:08.992Z,34.12
2023-03-06T07:33:09.020Z,34.11
2023-03-06T07:34:09.050Z,34.14
2023-03-06T07:35:19.800Z,34.16
2023-03-06T07:36:10.833Z,34.30
2023-03-06T07:37:08.078Z,34.47
2023-03-06T07:38:09.042Z,34.41
2023-03-06T07:39:09.076Z,34.58
2023-03-06T07:40:09.044Z,34.62
2023-03-06T07:41:09.032Z,34.64
2023-03-06T07:42:09.037Z,34.79
2023-03-06T07:43:18.600Z,34.93
2023-03-06T07:44:09.064Z,34.94
2023-03-06T07:45:09.012Z,34.95
2023-03-06T07:46:09.077Z,35.00
2023-03-06T07:47:09.091Z,35.15
2023-03-06T07:48:08.001Z,35.16
2023-03-06T07:49:09.009Z,35.14
2023-03-06T07:50:09.006Z,35.25
2023-03-06T07:51:09.046Z,35.31
2023-03-06T07:52:09.022Z,36.00
2023-03-06T07:53:10.821Z,35.55
2023-03-06T07:54:08.970Z,36.00
2023-03-06T07:55:08.940Z,35.37
2023-03-06T07:56:09.267Z,35.04
2023-03-06T07:59:08.929Z,36.23
2023-03-06T08:00:08.902Z,36.12
2023-03-06T08:01:08.896Z,36.08
2023-03-06T08:02:08.877Z,36.38
2023-03-06T08:03:08.958Z,36.13
2023-03-06T08:04:08.897Z,36.06
2023-03-06T08:05:08.899Z,36.10
2023-03-06T08:06:08.879Z,36.11
2023-03-06T08:07:08.873Z,36.14
2023-03-06T08:08:08.866Z,36.08
2023-03-06T08:09:08.848Z,36.30
2023-03-06T08:11:08.850Z,36.19
2023-03-06T08:12:08.829Z,36.31
2023-03-06T08:13:08.825Z,36.35
2023-03-06T08:14:08.820Z,36.37
2023-03-06T08:15:08.861Z,36.96
2023-03-06T08:16:08.842Z,36.64
2023-03-06T08:17:07.782Z,36.63
2023-03-06T08:18:08.832Z,36.85
2023-03-06T08:19:09.264Z,36.58
2023-03-06T08:21:08.852Z,36.80
2023-03-06T08:23:08.782Z,37.04
2023-03-06T08:24:08.757Z,37.17
2023-03-06T08:25:08.753Z,37.09
2023-03-06T08:26:08.731Z,37.36
2023-03-06T08:27:07.711Z,37.17
2023-03-06T08:28:08.795Z,37.21
2023-03-06T08:30:08.813Z,37.28
2023-03-06T08:31:08.730Z,37.25
2023-03-06T08:32:08.763Z,37.40
2023-03-06T08:33:08.699Z,37.39
2023-03-06T08:34:07.662Z,37.33
2023-03-06T08:35:07.743Z,37.88
2023-03-06T08:36:08.674Z,37.88
2023-03-06T08:37:08.694Z,37.80
2023-03-06T08:38:08.648Z,37.74
2023-03-06T08:39:08.629Z,37.96
2023-03-06T08:40:07.649Z,37.83
2023-03-06T08:41:08.630Z,37.92
2023-03-06T08:42:08.613Z,38.10
2023-03-06T08:43:08.623Z,38.12
2023-03-06T08:44:07.661Z,38.15
2023-03-06T08:45:08.573Z,38.13
2023-03-06T08:46:08.568Z,38.85
2023-03-06T08:47:07.562Z,38.36
2023-03-06T08:48:08.585Z,38.61
2023-03-06T08:49:07.651Z,39.47
2023-03-06T08:50:07.606Z,39.18
2023-03-06T08:51:07.558Z,39.11
2023-03-06T08:52:08.536Z,39.53
2023-03-06T08:53:08.539Z,39.08
2023-03-06T08:54:07.535Z,39.24
2023-03-06T08:55:08.533Z,39.56
2023-03-06T08:56:08.560Z,39.69
2023-03-06T08:57:07.509Z,39.24
2023-03-06T08:58:08.536Z,39.48
2023-03-06T08:59:07.500Z,39.23
2023-03-06T09:00:07.496Z,39.06
2023-03-06T09:01:08.501Z,39.27
2023-03-06T09:02:08.654Z,39.23
2023-03-06T09:03:07.509Z,39.32
2023-03-06T09:04:07.570Z,39.49
2023-03-06T09:05:08.627Z,39.47
2023-03-06T09:06:07.674Z,39.36
2023-03-06T09:07:08.761Z,39.39
2023-03-06T09:08:08.794Z,39.52
2023-03-06T09:09:07.906Z,39.64
2023-03-06T09:10:08.920Z,39.62
2023-03-06T09:11:08.971Z,39.84
2023-03-06T09:12:09.054Z,39.76
2023-03-06T09:13:09.089Z,39.61
2023-03-06T09:14:09.158Z,39.57
2023-03-06T09:15:09.230Z,39.71
2023-03-06T09:16:09.492Z,39.84
2023-03-06T09:17:08.320Z,39.88
2023-03-06T09:18:09.470Z,39.90
2023-03-06T09:19:09.438Z,39.94
2023-03-06T09:20:10.581Z,40.01
2023-03-06T09:21:09.584Z,40.30
2023-03-06T09:22:08.591Z,40.61
2023-03-06T09:23:09.698Z,40.29
2023-03-06T09:24:09.718Z,40.77
2023-03-06T09:25:08.765Z,40.91
2023-03-06T09:26:09.842Z,40.72
2023-03-06T09:27:09.892Z,40.87
2023-03-06T09:28:11.866Z,40.55
2023-03-06T09:29:09.989Z,40.60
2023-03-06T09:30:09.929Z,40.76
2023-03-06T09:31:09.948Z,40.87
2023-03-06T09:32:12.068Z,41.07
2023-03-06T09:33:09.915Z,41.02
2023-03-06T09:34:09.912Z,41.36
2023-03-06T09:35:08.895Z,41.49
2023-03-06T09:36:09.899Z,41.43
2023-03-06T09:37:08.895Z,41.38
2023-03-06T09:38:09.893Z,42.10
2023-03-06T09:39:09.875Z,42.02
2023-03-06T09:40:09.857Z,41.63
2023-03-06T09:41:09.869Z,41.61
2023-03-06T09:42:09.860Z,41.68
2023-03-06T09:43:09.844Z,40.53
2023-03-06T09:44:09.235Z,39.15
2023-03-06T09:45:08.838Z,40.29
2023-03-06T09:46:09.836Z,39.20
2023-03-06T09:47:09.802Z,40.04
2023-03-06T09:48:09.800Z,38.26
2023-03-06T09:49:09.795Z,35.89
2023-03-06T09:50:09.877Z,37.38
2023-03-06T09:51:09.783Z,37.83
2023-03-06T09:52:09.785Z,38.29
2023-03-06T09:53:09.768Z,38.51
2023-03-06T09:54:09.762Z,38.17
2023-03-06T09:55:09.743Z,38.02
2023-03-06T09:56:08.745Z,38.36
2023-03-06T09:57:09.756Z,38.09
2023-03-06T09:58:09.722Z,38.36
2023-03-06T09:59:10.174Z,38.47
2023-03-06T10:00:09.735Z,38.38
2023-03-06T10:01:09.719Z,38.42
2023-03-06T10:02:08.808Z,38.53
2023-03-06T10:03:08.862Z,38.45
2023-03-06T10:04:09.682Z,38.48
2023-03-06T10:05:08.716Z,38.77
2023-03-06T10:06:08.685Z,38.76
2023-03-06T10:07:08.720Z,38.79
2023-03-06T10:08:09.656Z,38.75
2023-03-06T10:09:09.658Z,38.81
2023-03-06T10:10:08.649Z,38.85
2023-03-06T10:11:09.641Z,38.99
2023-03-06T10:12:09.646Z,39.09
2023-03-06T10:13:09.635Z,39.17
2023-03-06T10:14:08.676Z,39.12
2023-03-06T10:15:08.751Z,39.19
2023-03-06T10:16:09.853Z,39.37
2023-03-06T10:17:09.808Z,39.30
2023-03-06T10:18:09.857Z,39.27
2023-03-06T10:19:09.919Z,39.32
2023-03-06T10:20:09.993Z,39.29
2023-03-06T10:21:19.090Z,39.42
2023-03-06T10:22:10.022Z,39.40
2023-03-06T10:23:11.171Z,39.57
2023-03-06T10:24:10.033Z,39.47
2023-03-06T10:25:09.001Z,39.53
2023-03-06T10:26:10.111Z,39.60
2023-03-06T10:27:09.034Z,40.32
2023-03-06T10:28:09.951Z,39.96
2023-03-06T10:29:09.974Z,39.92
2023-03-06T10:30:08.938Z,39.83
2023-03-06T10:31:10.602Z,40.23
2023-03-06T10:32:09.013Z,40.21
2023-03-06T10:33:09.937Z,40.22
2023-03-06T10:34:09.924Z,40.12
2023-03-06T10:35:08.929Z,40.60
2023-03-06T10:36:09.906Z,40.54
2023-03-06T10:37:09.906Z,40.45
2023-03-06T10:38:09.914Z,40.14
2023-03-06T10:39:09.943Z,40.38
2023-03-06T10:40:09.898Z,40.29
2023-03-06T10:41:08.870Z,40.56
2023-03-06T10:42:09.876Z,40.40
2023-03-06T10:43:11.906Z,40.52
2023-03-06T10:44:09.854Z,40.62
2023-03-06T10:45:09.867Z,40.54
2023-03-06T10:46:08.882Z,41.44
2023-03-06T10:47:09.855Z,41.26
2023-03-06T10:48:09.851Z,40.95
2023-03-06T10:49:09.184Z,40.73
2023-03-06T10:50:09.810Z,40.70
2023-03-06T10:51:18.088Z,40.89
2023-03-06T10:52:09.816Z,41.72
2023-03-06T10:53:09.798Z,41.44
2023-03-06T10:54:10.192Z,42.02
2023-03-06T10:57:09.763Z,40.95
2023-03-06T10:58:09.757Z,40.64
2023-03-06T10:59:09.741Z,40.46
2023-03-06T11:00:09.755Z,40.19
2023-03-06T11:01:08.744Z,39.65
2023-03-06T11:02:09.713Z,39.87
2023-03-06T11:03:09.715Z,39.63
2023-03-06T11:04:09.815Z,39.43
2023-03-06T11:05:09.693Z,39.48
2023-03-06T11:06:12.559Z,39.44
2023-03-06T11:07:09.726Z,39.37
2023-03-06T11:08:09.696Z,39.25
2023-03-06T11:09:09.717Z,39.18
2023-03-06T11:10:09.693Z,39.09
2023-03-06T11:11:09.677Z,39.07
2023-03-06T11:12:09.666Z,39.03
2023-03-06T11:13:09.638Z,39.05
2023-03-06T11:14:08.651Z,39.06
2023-03-06T11:15:08.630Z,39.07
2023-03-06T11:17:09.632Z,39.03
2023-03-06T11:18:09.622Z,39.03
2023-03-06T11:19:09.630Z,39.10
2023-03-06T11:20:08.640Z,39.21
2023-03-06T11:21:08.600Z,39.19
2023-03-06T11:22:09.606Z,39.20
2023-03-06T11:23:08.586Z,39.19
2023-03-06T11:24:09.614Z,39.17
2023-03-06T11:26:09.572Z,39.31
2023-03-06T11:28:09.554Z,39.26
2023-03-06T11:29:08.636Z,39.42
2023-03-06T11:30:09.536Z,39.46
2023-03-06T11:31:09.579Z,39.53
2023-03-06T11:32:09.576Z,39.59
2023-03-06T11:33:09.524Z,39.66
2023-03-06T11:34:08.518Z,39.88
2023-03-06T11:35:09.508Z,39.83
2023-03-06T11:37:09.477Z,39.76
2023-03-06T11:38:09.482Z,39.86
2023-03-06T11:39:09.516Z,40.06
2023-03-06T11:40:09.475Z,39.96
2023-03-06T11:41:09.462Z,40.49
2023-03-06T11:42:08.453Z,40.62
2023-03-06T11:43:09.440Z,40.33
2023-03-06T11:44:09.432Z,40.29
2023-03-06T11:45:09.455Z,40.45
2023-03-06T11:47:09.451Z,40.83
2023-03-06T11:48:09.404Z,40.21
2023-03-06T11:49:09.404Z,40.03
2023-03-06T11:50:09.393Z,39.99
2023-03-06T11:51:09.377Z,39.79
2023-03-06T11:52:09.436Z,39.33
2023-03-06T11:53:08.373Z,39.15
2023-03-06T11:54:09.383Z,39.27
2023-03-06T11:55:09.360Z,39.37
2023-03-06T11:56:09.357Z,39.49
2023-03-06T11:57:09.342Z,39.80
2023-03-06T11:58:08.365Z,39.72
2023-03-06T11:59:09.360Z,39.77
2023-03-06T12:00:09.327Z,39.77
2023-03-06T12:01:08.320Z,40.07
2023-03-06T12:02:09.347Z,39.99
2023-03-06T12:03:09.315Z,39.83
2023-03-06T12:04:08.318Z,39.82
2023-03-06T12:05:09.343Z,40.13
2023-03-06T12:06:09.284Z,40.52
2023-03-06T12:07:09.313Z,40.21
2023-03-06T12:08:09.371Z,40.32
2023-03-06T12:09:09.406Z,40.35
2023-03-06T12:10:09.433Z,40.32
2023-03-06T12:13:08.485Z,40.50
2023-03-06T12:14:09.517Z,40.50
2023-03-06T12:15:08.536Z,40.60
2023-03-06T12:16:09.592Z,40.57
2023-03-06T12:17:09.565Z,40.65
2023-03-06T12:19:09.597Z,40.68
2023-03-06T12:20:09.631Z,40.67
2023-03-06T12:21:08.628Z,40.67
2023-03-06T12:22:09.653Z,40.76
2023-03-06T12:23:15.255Z,41.10
2023-03-06T12:24:09.732Z,41.06
2023-03-06T12:25:08.657Z,41.47
2023-03-06T12:26:09.685Z,41.28
2023-03-06T12:30:09.704Z,41.29
2023-03-06T12:31:09.598Z,41.35
2023-03-06T12:32:09.734Z,41.58
2023-03-06T12:33:08.605Z,41.79
2023-03-06T12:34:08.573Z,42.01
2023-03-06T12:35:08.563Z,41.76
2023-03-06T12:37:09.577Z,42.35
2023-03-06T12:38:09.588Z,41.60
2023-03-06T12:39:09.564Z,41.55
2023-03-06T12:40:09.600Z,41.65
2023-03-06T12:43:09.534Z,41.55
2023-03-06T12:44:08.503Z,41.60
2023-03-06T12:45:09.512Z,41.68
2023-03-06T12:47:09.508Z,41.72
2023-03-06T12:48:09.467Z,41.78
2023-03-06T12:49:08.489Z,41.83
2023-03-06T12:50:09.468Z,41.82
2023-03-06T12:51:09.470Z,41.74
2023-03-06T12:52:09.794Z,41.84
2023-03-06T12:53:08.465Z,41.85
2023-03-06T12:54:09.450Z,41.88
2023-03-06T12:55:08.445Z,41.90
2023-03-06T12:57:09.446Z,41.92
2023-03-06T12:58:09.411Z,41.98
2023-03-06T12:59:09.405Z,42.02
2023-03-06T13:01:09.518Z,42.05
2023-03-06T13:02:08.411Z,41.96
2023-03-06T13:03:09.373Z,42.02
2023-03-06T13:04:09.368Z,42.07
2023-03-06T13:05:09.374Z,41.97
2023-03-06T13:06:09.440Z,41.96
2023-03-06T13:07:09.480Z,41.93
2023-03-06T13:08:08.533Z,41.91
2023-03-06T13:09:08.567Z,41.82
2023-03-06T13:15:09.878Z,41.84
2023-03-06T13:16:09.957Z,41.84
2023-03-06T13:17:10.002Z,41.84
2023-03-06T13:18:10.059Z,41.88
2023-03-06T13:19:09.134Z,41.74
2023-03-06T13:20:09.161Z,41.78
2023-03-06T13:21:10.224Z,41.84
2023-03-06T13:22:09.278Z,41.79
2023-03-06T13:23:10.341Z,41.86